createdAt,value
2024-05-09T00:01:39.518Z,101291.66
2024-05-09T00:04:44.089Z,101243.22
2024-05-09T00:07:51.231Z,101283.13
2024-05-09T00:10:56.087Z,101309.22
2024-05-09T00:14:00.599Z,101304.19
2024-05-09T00:17:05.100Z,101312.44
2024-05-09T00:20:17.512Z,101311.84
2024-05-09T00:23:27.730Z,101298.81
2024-05-09T00:26:32.274Z,101316.75
2024-05-09T00:29:36.878Z,101308.03
2024-05-09T00:32:41.488Z,101293.16
2024-05-09T00:35:46.068Z,101322.47
2024-05-09T00:38:53.152Z,101284.25
2024-05-09T00:41:57.588Z,101296.28
2024-05-09T00:45:02.008Z,101298.72
2024-05-09T00:48:09.637Z,101243.63
2024-05-09T00:51:15.232Z,101307.66
2024-05-09T00:54:22.764Z,101322.78
2024-05-09T00:57:29.396Z,101302.25
2024-05-09T01:00:39.113Z,101315.38
2024-05-09T01:03:46.619Z,101320.69
2024-05-09T01:06:52.621Z,101306.16
2024-05-09T01:09:59.759Z,101320.31
2024-05-09T01:13:04.447Z,101316.47
2024-05-09T01:16:09.338Z,101313.75
2024-05-09T01:19:22.768Z,101291.50
2024-05-09T01:22:30.050Z,101301.19
2024-05-09T01:25:37.280Z,101307.22
2024-05-09T01:28:41.946Z,101305.56
2024-05-09T01:31:46.999Z,101300.03
2024-05-09T01:34:51.621Z,101307.03
2024-05-09T01:37:56.262Z,101301.56
2024-05-09T01:41:03.671Z,101310.59
2024-05-09T01:44:08.448Z,101312.28
2024-05-09T01:47:13.028Z,101314.03
2024-05-09T01:50:22.491Z,101312.22
2024-05-09T01:53:33.487Z,101301.34
2024-05-09T01:56:40.784Z,101304.94
2024-05-09T01:59:45.399Z,101300.44
2024-05-09T02:02:50.107Z,101298.78
2024-05-09T02:05:54.715Z,101299.75
2024-05-09T02:08:59.228Z,101282.91
2024-05-09T02:12:06.874Z,101288.09
2024-05-09T02:15:11.755Z,101294.31
2024-05-09T02:18:16.605Z,101293.47
2024-05-09T02:21:21.264Z,101305.22
2024-05-09T02:24:25.898Z,101292.53
2024-05-09T02:27:33.029Z,101285.34
2024-05-09T02:30:40.737Z,101292.34
2024-05-09T02:33:46.990Z,101295.91
2024-05-09T02:36:51.673Z,101296.06
2024-05-09T02:39:53.710Z,101296.09
2024-05-09T02:43:00.906Z,101303.34
2024-05-09T02:46:02.823Z,101289.19
2024-05-09T02:49:07.567Z,101307.22
2024-05-09T02:52:09.537Z,101307.41
2024-05-09T02:55:14.073Z,101295.91
2024-05-09T02:58:18.801Z,101314.78
2024-05-09T03:01:23.327Z,101305.81
2024-05-09T03:04:25.773Z,101301.34
2024-05-09T03:07:30.307Z,101306.75
2024-05-09T03:10:36.903Z,101306.84
2024-05-09T03:13:43.192Z,101296.94
2024-05-09T03:16:47.809Z,101230.63
2024-05-09T03:19:49.893Z,101282.97
2024-05-09T03:22:56.745Z,101300.94
2024-05-09T03:25:58.954Z,101309.19
2024-05-09T03:29:06.386Z,101295.94
2024-05-09T03:32:08.465Z,101280.72
2024-05-09T03:35:13.204Z,101227.63
2024-05-09T03:38:18.044Z,101298.63
2024-05-09T03:41:22.952Z,101296.81
2024-05-09T03:44:30.386Z,101292.41
2024-05-09T03:47:35.674Z,101303.91
2024-05-09T03:50:38.089Z,101303.91
2024-05-09T03:53:42.725Z,101286.09
2024-05-09T03:56:44.676Z,101287.25
2024-05-09T03:59:51.821Z,101180.75
2024-05-09T04:02:56.373Z,101308.72
2024-05-09T04:06:00.934Z,101306.13
2024-05-09T04:09:02.781Z,101309.78
2024-05-09T04:12:10.383Z,101273.47
2024-05-09T04:15:15.224Z,101312.56
2024-05-09T04:18:19.964Z,101262.81
2024-05-09T04:21:21.890Z,101312.78
2024-05-09T04:24:26.363Z,101313.81
2024-05-09T04:27:30.823Z,101296.97
2024-05-09T04:30:40.901Z,101319.09
2024-05-09T04:33:43.822Z,101321.69
2024-05-09T04:36:48.318Z,101325.31
2024-05-09T04:39:50.241Z,101319.03
2024-05-09T04:42:54.757Z,101327.00
2024-05-09T04:45:59.256Z,101324.19
2024-05-09T04:49:03.800Z,101325.75
2024-05-09T04:52:06.236Z,101327.66
2024-05-09T04:55:10.760Z,101325.63
2024-05-09T04:58:15.309Z,101328.22
2024-05-09T05:01:19.890Z,101328.03
2024-05-09T05:04:25.114Z,101329.81
2024-05-09T05:07:27.012Z,101311.97
2024-05-09T05:10:36.069Z,101320.75
2024-05-09T05:13:41.331Z,101316.94
2024-05-09T05:16:48.868Z,101333.59
2024-05-09T05:19:51.039Z,101339.66
2024-05-09T05:22:55.671Z,101335.84
2024-05-09T05:25:57.630Z,101345.47
2024-05-09T05:29:02.243Z,101320.97
2024-05-09T05:32:10.095Z,101325.13
2024-05-09T05:35:12.023Z,101317.75
2024-05-09T05:38:16.724Z,101340.53
2024-05-09T05:41:18.696Z,101340.88
2024-05-09T05:44:23.358Z,101336.97
2024-05-09T05:47:28.033Z,101337.34
2024-05-09T05:50:36.366Z,101334.09
2024-05-09T05:53:40.203Z,101347.22
2024-05-09T05:56:44.973Z,101343.22
2024-05-09T05:59:46.972Z,101314.91
2024-05-09T06:02:54.363Z,101345.81
2024-05-09T06:05:56.655Z,101333.50
2024-05-09T06:09:01.273Z,101356.47
2024-05-09T06:12:06.575Z,101307.75
2024-05-09T06:15:09.082Z,101345.59
2024-05-09T06:18:16.665Z,101346.22
2024-05-09T06:21:21.415Z,101347.59
2024-05-09T06:24:23.345Z,101342.13
2024-05-09T06:27:27.887Z,101321.81
2024-05-09T06:30:37.409Z,101319.94
2024-05-09T06:33:47.224Z,101345.25
2024-05-09T06:36:52.406Z,101348.16
2024-05-09T06:39:54.270Z,101352.06
2024-05-09T06:42:59.186Z,101350.44
2024-05-09T06:46:01.385Z,101349.09
2024-05-09T06:49:11.524Z,101351.03
2024-05-09T06:52:16.141Z,101355.47
2024-05-09T06:55:18.034Z,101347.03
2024-05-09T06:58:22.476Z,101340.97
2024-05-09T07:01:24.518Z,101348.03
2024-05-09T07:04:31.756Z,101346.00
2024-05-09T07:07:36.235Z,101333.22
2024-05-09T07:10:38.579Z,101336.69
2024-05-09T07:13:43.165Z,101342.31
2024-05-09T07:16:45.295Z,101288.16
2024-05-09T07:19:53.638Z,101330.56
2024-05-09T07:22:55.701Z,101326.25
2024-05-09T07:26:00.553Z,101329.81
2024-05-09T07:29:02.504Z,101317.78
2024-05-09T07:32:09.105Z,101302.63
2024-05-09T07:35:13.688Z,101272.09
2024-05-09T07:38:18.328Z,101253.09
2024-05-09T07:41:20.317Z,101302.88
2024-05-09T07:44:24.946Z,101300.28
2024-05-09T07:52:32.599Z,101274.50
2024-05-09T07:54:02.080Z,101289.81
2024-05-09T07:57:05.012Z,101292.91
2024-05-09T08:00:14.353Z,101289.59
2024-05-09T08:03:16.603Z,101292.53
2024-05-09T08:06:24.613Z,101278.13
2024-05-09T08:09:26.680Z,101187.94
2024-05-09T08:12:33.708Z,101241.16
2024-05-09T08:15:39.345Z,101279.69
2024-05-09T08:18:42.875Z,101270.63
2024-05-09T08:21:52.012Z,101275.41
2024-05-09T08:24:57.878Z,101247.63
2024-05-09T08:27:59.987Z,101227.94
2024-05-09T08:31:06.863Z,101264.03
2024-05-09T08:34:09.457Z,101255.06
2024-05-09T08:37:22.356Z,101262.00
2024-05-09T08:40:33.753Z,101261.34
2024-05-09T08:43:42.043Z,101254.38
2024-05-09T08:46:47.397Z,101254.31
2024-05-09T08:49:58.364Z,101245.72
2024-05-09T08:53:05.918Z,101250.78
2024-05-09T08:56:11.427Z,101239.47
2024-05-09T08:59:23.549Z,101232.47
2024-05-09T09:02:29.342Z,101241.09
2024-05-09T09:05:36.071Z,101232.84
2024-05-09T09:08:43.594Z,101230.03
2024-05-09T09:11:45.655Z,101235.06
2024-05-09T09:14:50.243Z,101209.75
2024-05-09T09:17:57.367Z,101215.56
2024-05-09T09:21:02.894Z,101221.75
2024-05-09T09:24:09.978Z,101213.72
2024-05-09T09:27:16.763Z,101203.59
2024-05-09T09:30:31.493Z,101208.88
2024-05-09T09:33:44.973Z,101211.16
2024-05-09T09:36:48.036Z,101204.13
2024-05-09T09:39:55.801Z,101203.56
2024-05-09T09:42:58.143Z,101190.47
2024-05-09T09:46:03.753Z,101199.59
2024-05-09T09:49:07.357Z,101196.75
2024-05-09T09:52:12.495Z,101195.66
2024-05-09T09:55:17.669Z,101185.94
2024-05-09T09:58:23.099Z,101188.84
2024-05-09T10:01:25.219Z,101194.50
2024-05-09T10:04:29.943Z,101174.47
2024-05-09T10:07:32.773Z,101184.28
2024-05-09T10:10:40.310Z,101193.41
2024-05-09T10:13:42.363Z,101188.22
2024-05-09T10:16:47.123Z,101178.72
2024-05-09T10:19:52.100Z,101182.44
2024-05-09T10:22:54.060Z,101169.03
2024-05-09T10:26:03.511Z,101180.94
2024-05-09T10:29:12.695Z,101159.00
2024-05-09T10:32:17.283Z,101173.22
2024-05-09T10:35:22.656Z,101166.72
2024-05-09T10:38:25.139Z,101169.84
2024-05-09T10:41:32.410Z,101164.50
2024-05-09T10:44:37.568Z,101125.13
2024-05-09T10:47:42.691Z,101139.19
2024-05-09T10:50:46.140Z,101139.56
2024-05-09T10:53:52.579Z,101153.63
2024-05-09T10:56:59.982Z,101151.97
2024-05-09T11:00:06.328Z,101147.38
2024-05-09T11:03:11.595Z,101141.69
2024-05-09T11:06:17.574Z,101134.91
2024-05-09T11:09:22.387Z,101132.41
2024-05-09T11:12:27.053Z,101132.09
2024-05-09T11:15:40.652Z,101041.84
2024-05-09T11:18:43.343Z,101109.75
2024-05-09T11:21:53.908Z,101120.63
2024-05-09T11:24:58.553Z,101113.84
2024-05-09T11:28:03.794Z,101113.38
2024-05-09T11:31:10.291Z,101104.25
2024-05-09T11:34:15.437Z,101105.03
2024-05-09T11:37:20.139Z,101094.34
2024-05-09T11:40:25.835Z,101082.47
2024-05-09T11:43:39.278Z,101098.69
2024-05-09T11:46:41.401Z,101091.19
2024-05-09T11:49:46.431Z,101092.25
2024-05-09T11:52:48.366Z,101082.69
2024-05-09T11:55:53.060Z,101075.31
2024-05-09T11:58:57.780Z,101067.19
2024-05-09T12:02:02.475Z,101058.22
2024-05-09T12:05:05.310Z,101057.81
2024-05-09T12:08:10.495Z,101056.09
2024-05-09T12:11:13.938Z,101062.38
2024-05-09T12:14:21.094Z,101065.59
2024-05-09T12:17:23.067Z,101055.44
2024-05-09T12:20:35.301Z,101057.75
2024-05-09T12:23:42.848Z,101055.19
2024-05-09T12:26:44.767Z,101034.72
2024-05-09T12:29:52.005Z,101045.22
2024-05-09T12:32:54.170Z,101040.25
2024-05-09T12:35:58.723Z,101047.19
2024-05-09T12:39:01.017Z,101049.69
2024-05-09T12:42:05.539Z,101036.50
2024-05-09T12:45:10.214Z,101019.78
2024-05-09T12:48:14.848Z,101032.16
2024-05-09T12:51:16.813Z,101024.56
2024-05-09T12:54:21.253Z,101026.28
2024-05-09T12:57:23.616Z,101018.03
2024-05-09T13:00:33.982Z,101011.00
2024-05-09T13:03:36.700Z,101009.34
2024-05-09T13:06:41.543Z,101003.94
2024-05-09T13:09:46.209Z,100976.53
2024-05-09T13:12:48.119Z,100997.34
2024-05-09T13:15:55.422Z,100972.00
2024-05-09T13:18:57.452Z,100990.56
2024-05-09T13:22:02.011Z,100985.78
2024-05-09T13:25:07.157Z,100984.78
2024-05-09T13:28:09.133Z,100973.50
2024-05-09T13:31:16.442Z,100962.00
2024-05-09T13:34:21.349Z,100970.59
2024-05-09T13:37:23.484Z,100965.22
2024-05-09T13:40:33.583Z,100963.75
2024-05-09T13:43:40.635Z,100957.47
2024-05-09T13:46:45.271Z,100954.72
2024-05-09T13:49:50.751Z,100949.94
2024-05-09T13:52:52.651Z,100949.97
2024-05-09T13:55:57.372Z,100931.78
2024-05-09T13:58:59.349Z,100949.47
2024-05-09T14:02:06.967Z,100925.53
2024-05-09T14:05:09.237Z,100933.53
2024-05-09T14:08:15.843Z,100951.06
2024-05-09T14:11:18.094Z,100940.19
2024-05-09T14:14:22.716Z,100903.09
2024-05-09T14:17:27.402Z,100932.94
2024-05-09T14:20:32.688Z,100923.13
2024-05-09T14:23:37.413Z,100923.25
2024-05-09T14:26:39.326Z,100922.22
2024-05-09T14:29:44.246Z,100918.56
2024-05-09T14:32:49.172Z,100917.72
2024-05-09T14:35:53.843Z,100911.66
2024-05-09T14:38:58.412Z,100891.75
2024-05-09T14:42:00.287Z,100893.38
2024-05-09T14:45:06.249Z,100903.03
2024-05-09T14:48:11.609Z,100899.78
2024-05-09T14:51:16.588Z,100887.88
2024-05-09T14:54:18.573Z,100855.28
2024-05-09T14:57:23.317Z,100873.72
2024-05-09T15:00:29.203Z,100858.88
2024-05-09T15:03:40.966Z,100882.72
2024-05-09T15:06:43.001Z,100869.94
2024-05-09T15:09:47.664Z,100872.56
2024-05-09T15:12:49.745Z,100868.91
2024-05-09T15:15:54.753Z,100868.16
2024-05-09T15:19:02.205Z,100870.16
2024-05-09T15:22:04.544Z,100855.50
2024-05-09T15:25:09.700Z,100853.63
2024-05-09T15:28:11.813Z,100855.59
2024-05-09T15:31:16.285Z,100857.69
2024-05-09T15:34:20.914Z,100862.28
2024-05-09T15:37:25.843Z,100864.19
2024-05-09T15:40:36.199Z,100862.66
2024-05-09T15:43:44.436Z,100867.31
2024-05-09T15:46:46.559Z,100853.34
2024-05-09T15:49:53.892Z,100853.25
2024-05-09T15:52:57.510Z,100842.09
2024-05-09T15:56:02.100Z,100849.59
2024-05-09T15:59:04.096Z,100841.44
2024-05-09T16:02:11.400Z,100835.47
2024-05-09T16:05:16.878Z,100845.50
2024-05-09T16:08:21.541Z,100818.16
2024-05-09T16:11:26.179Z,100831.72
2024-05-09T16:14:28.099Z,100836.34
2024-05-09T16:17:32.834Z,100831.59
2024-05-09T16:20:40.763Z,100835.63
2024-05-09T16:23:46.975Z,100830.91
2024-05-09T16:26:48.852Z,100823.38
2024-05-09T16:29:53.407Z,100837.19
2024-05-09T16:32:55.995Z,100837.41
2024-05-09T16:36:03.292Z,100836.69
2024-05-09T16:39:07.831Z,100834.94
2024-05-09T16:42:12.297Z,100799.13
2024-05-09T16:45:14.429Z,100841.44
2024-05-09T16:48:19.454Z,100826.53
2024-05-09T16:51:26.575Z,100819.91
2024-05-09T16:54:31.184Z,100799.59
2024-05-09T16:57:35.775Z,100821.41
2024-05-09T17:00:42.115Z,100820.13
2024-05-09T17:03:48.309Z,100818.16
2024-05-09T17:06:52.965Z,100831.66
2024-05-09T17:09:57.677Z,100830.28
2024-05-09T17:13:02.753Z,100826.75
2024-05-09T17:16:09.461Z,100833.50
2024-05-09T17:19:14.047Z,100821.97
2024-05-09T17:22:18.702Z,100830.34
2024-05-09T17:25:23.229Z,100830.34
2024-05-09T17:28:25.491Z,100831.94
2024-05-09T17:31:30.231Z,100831.31
2024-05-09T17:34:32.413Z,100828.78
2024-05-09T17:37:39.679Z,100811.06
2024-05-09T17:40:41.822Z,100832.84
2024-05-09T17:43:47.072Z,100801.13
2024-05-09T17:46:48.974Z,100844.38
2024-05-09T17:49:53.660Z,100836.88
2024-05-09T17:52:58.256Z,100836.03
2024-05-09T17:56:02.999Z,100845.53
2024-05-09T17:59:06.486Z,100847.84
2024-05-09T18:02:12.681Z,100849.97
2024-05-09T18:05:14.916Z,100845.63
2024-05-09T18:08:22.110Z,100857.31
2024-05-09T18:11:27.737Z,100861.47
2024-05-09T18:14:29.628Z,100867.34
2024-05-09T18:17:34.346Z,100847.66
2024-05-09T18:20:42.219Z,100867.06
2024-05-09T18:23:54.876Z,100873.94
2024-05-09T18:26:59.487Z,100878.72
2024-05-09T18:30:07.105Z,100877.75
2024-05-09T18:33:10.258Z,100857.56
2024-05-09T18:36:15.338Z,100866.28
2024-05-09T18:39:19.933Z,100876.19
2024-05-09T18:42:24.436Z,100886.56
2024-05-09T18:45:28.939Z,100890.88
2024-05-09T18:48:31.021Z,100879.34
2024-05-09T18:51:35.660Z,100863.75
2024-05-09T18:54:40.191Z,100903.91
2024-05-09T18:57:44.808Z,100858.41
2024-05-09T19:00:50.191Z,100908.16
2024-05-09T19:03:56.151Z,100832.13
2024-05-09T19:06:58.358Z,100920.19
2024-05-09T19:10:09.456Z,100868.09
2024-05-09T19:13:16.637Z,100931.88
2024-05-09T19:16:21.412Z,100922.19
2024-05-09T19:19:23.673Z,100924.50
2024-05-09T19:22:28.516Z,100935.94
2024-05-09T19:25:33.127Z,100938.25
2024-05-09T19:28:37.703Z,100949.25
2024-05-09T19:31:39.617Z,100939.81
2024-05-09T19:34:44.122Z,100957.16
2024-05-09T19:37:46.099Z,100964.66
2024-05-09T19:40:53.485Z,100960.31
2024-05-09T19:43:55.397Z,100948.06
2024-05-09T19:46:59.936Z,100962.88
2024-05-09T19:50:01.870Z,100958.59
2024-05-09T19:53:06.698Z,100938.13
2024-05-09T19:56:11.555Z,100925.16
2024-05-09T19:59:16.079Z,100956.75
2024-05-09T20:02:18.295Z,100872.72
2024-05-09T20:05:23.310Z,100935.75
2024-05-09T20:08:25.476Z,100963.69
2024-05-09T20:11:33.256Z,100904.16
2024-05-09T20:14:35.282Z,100971.59
2024-05-09T20:17:40.937Z,100970.09
2024-05-09T20:20:44.955Z,100965.94
2024-05-09T20:23:50.197Z,100905.31
2024-05-09T20:26:54.770Z,100965.72
2024-05-09T20:29:59.306Z,100964.69
2024-05-09T20:33:03.548Z,100966.47
2024-05-09T20:36:09.646Z,100974.06
2024-05-09T20:39:11.604Z,100980.81
2024-05-09T20:42:18.768Z,100970.22
2024-05-09T20:45:20.637Z,100952.13
2024-05-09T20:48:25.280Z,100955.31
2024-05-09T20:51:28.729Z,100863.78
2024-05-09T20:54:34.070Z,100981.53
2024-05-09T20:57:38.715Z,100988.50
2024-05-09T21:00:45.399Z,100985.19
2024-05-09T21:03:51.088Z,100909.75
2024-05-09T21:06:53.136Z,100941.63
2024-05-09T21:09:57.763Z,100910.31
2024-05-09T21:13:05.709Z,100893.56
2024-05-09T21:16:08.756Z,100991.84
2024-05-09T21:19:13.373Z,100901.03
2024-05-09T21:22:15.493Z,100893.53
2024-05-09T21:25:20.211Z,100992.63
2024-05-09T21:28:24.990Z,100997.28
2024-05-09T21:31:29.980Z,100997.47
2024-05-09T21:34:34.672Z,100936.00
2024-05-09T21:37:36.737Z,100939.69
2024-05-09T21:40:41.324Z,101005.63
2024-05-09T21:43:45.962Z,101005.88
2024-05-09T21:46:51.554Z,101002.53
2024-05-09T21:49:53.718Z,100998.34
2024-05-09T21:52:58.329Z,100984.31
2024-05-09T21:56:00.275Z,101000.50
2024-05-09T21:59:07.476Z,100994.41
2024-05-09T22:02:09.649Z,100987.47
2024-05-09T22:05:16.165Z,100931.94
2024-05-09T22:08:20.935Z,100975.75
2024-05-09T22:11:23.012Z,100985.00
2024-05-09T22:14:30.319Z,100990.44
2024-05-09T22:17:32.504Z,100993.22
2024-05-09T22:20:43.540Z,100996.16
2024-05-09T22:23:45.872Z,100992.59
2024-05-09T22:26:52.202Z,100924.81
2024-05-09T22:29:56.916Z,101000.13
2024-05-09T22:33:01.767Z,101005.94
2024-05-09T22:36:06.700Z,101001.47
2024-05-09T22:39:08.658Z,100979.69
2024-05-09T22:42:13.195Z,100918.66
2024-05-09T22:45:17.775Z,100900.25
2024-05-09T22:48:23.702Z,100994.88
2024-05-09T22:51:28.926Z,101004.13
2024-05-09T22:54:30.780Z,100926.53
2024-05-09T22:57:35.479Z,101009.91
2024-05-09T23:00:40.287Z,100928.53
2024-05-09T23:03:45.144Z,100975.75
2024-05-09T23:06:47.440Z,100913.09
2024-05-09T23:09:52.042Z,100920.34
2024-05-09T23:12:53.960Z,100997.16
2024-05-09T23:16:01.247Z,101011.09
2024-05-09T23:19:03.293Z,100917.53
2024-05-09T23:22:07.954Z,100985.16
2024-05-09T23:25:09.986Z,100913.50
2024-05-09T23:28:14.953Z,100918.94
2024-05-09T23:31:19.605Z,100875.44
2024-05-09T23:34:24.447Z,100906.59
2024-05-09T23:37:26.553Z,101001.56
2024-05-09T23:40:38.390Z,100922.81
2024-05-09T23:43:42.584Z,100998.13
2024-05-09T23:46:49.891Z,100969.75
2024-05-09T23:49:51.830Z,101002.94
2024-05-09T23:52:56.399Z,100993.16
2024-05-09T23:55:58.320Z,100989.91
2024-05-09T23:59:02.853Z,100958.19
